sensor_id;sensor_type;location;lat;lon;timestamp;P1;durP1;ratioP1;P2;durP2;ratioP2
26014;SDS011;13793;55.388;37.844;2023-03-19T00:01:29;4.97;;;2.87;;
26014;SDS011;13793;55.388;37.844;2023-03-19T00:03:59;6.07;;;2.80;;
26014;SDS011;13793;55.388;37.844;2023-03-19T00:06:30;4.50;;;2.70;;
26014;SDS011;13793;55.388;37.844;2023-03-19T00:09:01;3.83;;;2.73;;
26014;SDS011;13793;55.388;37.844;2023-03-19T00:11:32;3.47;;;2.40;;
26014;SDS011;13793;55.388;37.844;2023-03-19T00:14:02;4.80;;;2.67;;
26014;SDS011;13793;55.388;37.844;2023-03-19T00:16:33;5.80;;;2.90;;
26014;SDS011;13793;55.388;37.844;2023-03-19T00:19:04;3.60;;;2.57;;
26014;SDS011;13793;55.388;37.844;2023-03-19T00:21:35;4.37;;;2.90;;
26014;SDS011;13793;55.388;37.844;2023-03-19T00:24:06;4.67;;;2.80;;
26014;SDS011;13793;55.388;37.844;2023-03-19T00:26:38;4.37;;;2.80;;
26014;SDS011;13793;55.388;37.844;2023-03-19T00:29:08;5.93;;;3.40;;
26014;SDS011;13793;55.388;37.844;2023-03-19T00:31:40;4.67;;;3.23;;
26014;SDS011;13793;55.388;37.844;2023-03-19T00:34:10;4.83;;;3.03;;
26014;SDS011;13793;55.388;37.844;2023-03-19T00:36:41;4.23;;;2.80;;
26014;SDS011;13793;55.388;37.844;2023-03-19T00:39:12;5.73;;;2.90;;
26014;SDS011;13793;55.388;37.844;2023-03-19T00:41:43;8.33;;;3.63;;
26014;SDS011;13793;55.388;37.844;2023-03-19T00:44:16;8.40;;;3.50;;
26014;SDS011;13793;55.388;37.844;2023-03-19T00:46:47;7.90;;;3.30;;
26014;SDS011;13793;55.388;37.844;2023-03-19T00:49:17;9.30;;;3.80;;
26014;SDS011;13793;55.388;37.844;2023-03-19T00:51:48;4.83;;;3.40;;
26014;SDS011;13793;55.388;37.844;2023-03-19T00:54:19;6.57;;;3.50;;
26014;SDS011;13793;55.388;37.844;2023-03-19T00:56:49;8.10;;;3.63;;
26014;SDS011;13793;55.388;37.844;2023-03-19T00:59:20;6.70;;;3.77;;
26014;SDS011;13793;55.388;37.844;2023-03-19T01:01:52;6.03;;;3.70;;
26014;SDS011;13793;55.388;37.844;2023-03-19T01:04:23;9.63;;;4.13;;
26014;SDS011;13793;55.388;37.844;2023-03-19T01:06:53;6.57;;;3.80;;
26014;SDS011;13793;55.388;37.844;2023-03-19T01:09:24;8.70;;;3.67;;
26014;SDS011;13793;55.388;37.844;2023-03-19T01:11:54;7.53;;;3.43;;
26014;SDS011;13793;55.388;37.844;2023-03-19T01:14:25;6.70;;;3.37;;
26014;SDS011;13793;55.388;37.844;2023-03-19T01:16:56;5.63;;;3.70;;
26014;SDS011;13793;55.388;37.844;2023-03-19T01:19:26;8.30;;;3.70;;
26014;SDS011;13793;55.388;37.844;2023-03-19T01:21:58;5.23;;;3.80;;
26014;SDS011;13793;55.388;37.844;2023-03-19T01:24:30;11.27;;;4.30;;
26014;SDS011;13793;55.388;37.844;2023-03-19T01:27:00;8.80;;;3.90;;
26014;SDS011;13793;55.388;37.844;2023-03-19T01:29:33;7.00;;;4.00;;
26014;SDS011;13793;55.388;37.844;2023-03-19T01:32:11;7.73;;;3.60;;
26014;SDS011;13793;55.388;37.844;2023-03-19T01:34:43;11.33;;;4.30;;
26014;SDS011;13793;55.388;37.844;2023-03-19T01:37:16;9.37;;;4.60;;
26014;SDS011;13793;55.388;37.844;2023-03-19T01:39:47;5.63;;;4.00;;
26014;SDS011;13793;55.388;37.844;2023-03-19T01:42:18;7.70;;;4.13;;
26014;SDS011;13793;55.388;37.844;2023-03-19T01:45:27;9.87;;;4.23;;
26014;SDS011;13793;55.388;37.844;2023-03-19T01:48:24;7.33;;;3.90;;
26014;SDS011;13793;55.388;37.844;2023-03-19T01:51:01;8.45;;;3.50;;
26014;SDS011;13793;55.388;37.844;2023-03-19T01:54:00;7.97;;;3.90;;
26014;SDS011;13793;55.388;37.844;2023-03-19T01:56:30;9.53;;;4.20;;
26014;SDS011;13793;55.388;37.844;2023-03-19T01:59:08;8.73;;;4.50;;
26014;SDS011;13793;55.388;37.844;2023-03-19T02:01:56;7.13;;;4.10;;
26014;SDS011;13793;55.388;37.844;2023-03-19T02:04:24;5.40;;;3.27;;
26014;SDS011;13793;55.388;37.844;2023-03-19T02:06:56;8.20;;;4.13;;
26014;SDS011;13793;55.388;37.844;2023-03-19T02:09:28;5.83;;;4.20;;
26014;SDS011;13793;55.388;37.844;2023-03-19T02:12:00;8.53;;;4.30;;
26014;SDS011;13793;55.388;37.844;2023-03-19T02:14:31;8.53;;;4.20;;
26014;SDS011;13793;55.388;37.844;2023-03-19T02:17:02;8.43;;;4.00;;
26014;SDS011;13793;55.388;37.844;2023-03-19T02:19:40;7.50;;;4.30;;
26014;SDS011;13793;55.388;37.844;2023-03-19T02:22:29;10.77;;;4.03;;
26014;SDS011;13793;55.388;37.844;2023-03-19T02:25:05;12.13;;;4.67;;
26014;SDS011;13793;55.388;37.844;2023-03-19T02:27:42;9.53;;;4.30;;
26014;SDS011;13793;55.388;37.844;2023-03-19T02:30:25;8.20;;;4.30;;
26014;SDS011;13793;55.388;37.844;2023-03-19T02:32:55;9.80;;;5.03;;
26014;SDS011;13793;55.388;37.844;2023-03-19T02:35:25;15.03;;;4.83;;
26014;SDS011;13793;55.388;37.844;2023-03-19T02:37:59;10.47;;;5.17;;
26014;SDS011;13793;55.388;37.844;2023-03-19T02:40:32;9.13;;;4.40;;
26014;SDS011;13793;55.388;37.844;2023-03-19T02:43:07;10.90;;;5.42;;
26014;SDS011;13793;55.388;37.844;2023-03-19T02:45:37;12.97;;;4.50;;
26014;SDS011;13793;55.388;37.844;2023-03-19T02:48:08;12.57;;;4.97;;
26014;SDS011;13793;55.388;37.844;2023-03-19T02:50:39;9.73;;;5.27;;
26014;SDS011;13793;55.388;37.844;2023-03-19T02:53:10;11.27;;;4.53;;
26014;SDS011;13793;55.388;37.844;2023-03-19T02:55:41;11.23;;;5.13;;
26014;SDS011;13793;55.388;37.844;2023-03-19T02:58:11;11.03;;;5.23;;
26014;SDS011;13793;55.388;37.844;2023-03-19T03:00:43;15.00;;;5.20;;
26014;SDS011;13793;55.388;37.844;2023-03-19T03:03:14;15.17;;;6.10;;
26014;SDS011;13793;55.388;37.844;2023-03-19T03:05:44;16.57;;;5.70;;
26014;SDS011;13793;55.388;37.844;2023-03-19T03:08:15;20.33;;;5.57;;
26014;SDS011;13793;55.388;37.844;2023-03-19T03:10:46;15.70;;;6.00;;
26014;SDS011;13793;55.388;37.844;2023-03-19T03:13:16;13.73;;;5.40;;
26014;SDS011;13793;55.388;37.844;2023-03-19T03:15:47;13.30;;;5.43;;
26014;SDS011;13793;55.388;37.844;2023-03-19T03:18:18;11.27;;;5.97;;
26014;SDS011;13793;55.388;37.844;2023-03-19T03:20:48;16.43;;;5.60;;
26014;SDS011;13793;55.388;37.844;2023-03-19T03:23:20;13.40;;;5.73;;
26014;SDS011;13793;55.388;37.844;2023-03-19T03:25:50;11.77;;;5.63;;
26014;SDS011;13793;55.388;37.844;2023-03-19T03:28:21;10.87;;;5.67;;
26014;SDS011;13793;55.388;37.844;2023-03-19T03:30:57;11.97;;;5.00;;
26014;SDS011;13793;55.388;37.844;2023-03-19T03:33:25;16.87;;;6.50;;
26014;SDS011;13793;55.388;37.844;2023-03-19T03:35:56;14.47;;;5.73;;
26014;SDS011;13793;55.388;37.844;2023-03-19T03:38:27;21.23;;;6.40;;
26014;SDS011;13793;55.388;37.844;2023-03-19T03:40:57;21.40;;;6.80;;
26014;SDS011;13793;55.388;37.844;2023-03-19T03:43:28;18.57;;;6.33;;
26014;SDS011;13793;55.388;37.844;2023-03-19T03:45:59;21.83;;;6.20;;
26014;SDS011;13793;55.388;37.844;2023-03-19T03:48:30;17.80;;;6.47;;
26014;SDS011;13793;55.388;37.844;2023-03-19T03:51:01;23.70;;;6.10;;
26014;SDS011;13793;55.388;37.844;2023-03-19T03:53:32;18.53;;;6.73;;
26014;SDS011;13793;55.388;37.844;2023-03-19T03:56:03;24.60;;;5.80;;
26014;SDS011;13793;55.388;37.844;2023-03-19T03:58:33;22.90;;;7.23;;
26014;SDS011;13793;55.388;37.844;2023-03-19T04:01:05;14.67;;;6.53;;
26014;SDS011;13793;55.388;37.844;2023-03-19T04:03:36;20.60;;;6.97;;
26014;SDS011;13793;55.388;37.844;2023-03-19T04:06:11;16.13;;;6.73;;
26014;SDS011;13793;55.388;37.844;2023-03-19T04:11:15;14.43;;;6.00;;
26014;SDS011;13793;55.388;37.844;2023-03-19T04:13:46;13.20;;;6.03;;
26014;SDS011;13793;55.388;37.844;2023-03-19T04:16:17;18.37;;;6.80;;
26014;SDS011;13793;55.388;37.844;2023-03-19T04:18:48;21.73;;;7.23;;
26014;SDS011;13793;55.388;37.844;2023-03-19T04:21:20;18.00;;;7.17;;
26014;SDS011;13793;55.388;37.844;2023-03-19T04:23:51;15.53;;;6.63;;
26014;SDS011;13793;55.388;37.844;2023-03-19T04:26:21;13.87;;;6.30;;
26014;SDS011;13793;55.388;37.844;2023-03-19T04:28:52;19.40;;;6.53;;
26014;SDS011;13793;55.388;37.844;2023-03-19T04:31:23;16.20;;;6.53;;
26014;SDS011;13793;55.388;37.844;2023-03-19T04:33:54;17.40;;;6.00;;
26014;SDS011;13793;55.388;37.844;2023-03-19T04:36:25;15.87;;;7.20;;
26014;SDS011;13793;55.388;37.844;2023-03-19T04:38:56;11.30;;;6.13;;
26014;SDS011;13793;55.388;37.844;2023-03-19T04:41:27;16.27;;;6.80;;
26014;SDS011;13793;55.388;37.844;2023-03-19T04:44:09;10.57;;;5.93;;
26014;SDS011;13793;55.388;37.844;2023-03-19T04:46:41;15.03;;;6.67;;
26014;SDS011;13793;55.388;37.844;2023-03-19T04:49:14;13.30;;;6.20;;
26014;SDS011;13793;55.388;37.844;2023-03-19T04:51:46;10.60;;;6.10;;
26014;SDS011;13793;55.388;37.844;2023-03-19T04:54:17;12.83;;;6.50;;
26014;SDS011;13793;55.388;37.844;2023-03-19T04:56:48;10.90;;;5.87;;
26014;SDS011;13793;55.388;37.844;2023-03-19T04:59:21;11.77;;;6.40;;
26014;SDS011;13793;55.388;37.844;2023-03-19T05:01:52;10.47;;;6.20;;
26014;SDS011;13793;55.388;37.844;2023-03-19T05:04:24;13.47;;;6.60;;
26014;SDS011;13793;55.388;37.844;2023-03-19T05:06:57;13.97;;;6.30;;
26014;SDS011;13793;55.388;37.844;2023-03-19T05:09:27;12.70;;;5.77;;
26014;SDS011;13793;55.388;37.844;2023-03-19T05:11:59;10.93;;;5.93;;
26014;SDS011;13793;55.388;37.844;2023-03-19T05:14:31;11.47;;;6.07;;
26014;SDS011;13793;55.388;37.844;2023-03-19T05:17:03;13.67;;;6.50;;
26014;SDS011;13793;55.388;37.844;2023-03-19T05:19:36;10.63;;;6.50;;
26014;SDS011;13793;55.388;37.844;2023-03-19T05:22:08;10.90;;;6.27;;
26014;SDS011;13793;55.388;37.844;2023-03-19T05:24:39;13.53;;;7.00;;
26014;SDS011;13793;55.388;37.844;2023-03-19T05:27:11;10.13;;;6.53;;
26014;SDS011;13793;55.388;37.844;2023-03-19T05:29:43;11.67;;;6.80;;
26014;SDS011;13793;55.388;37.844;2023-03-19T05:32:29;13.67;;;6.50;;
26014;SDS011;13793;55.388;37.844;2023-03-19T05:35:01;13.37;;;6.60;;
26014;SDS011;13793;55.388;37.844;2023-03-19T05:37:33;10.97;;;5.47;;
26014;SDS011;13793;55.388;37.844;2023-03-19T05:40:05;9.87;;;6.23;;
26014;SDS011;13793;55.388;37.844;2023-03-19T05:42:36;11.20;;;6.50;;
26014;SDS011;13793;55.388;37.844;2023-03-19T05:45:08;11.83;;;5.73;;
26014;SDS011;13793;55.388;37.844;2023-03-19T05:47:46;10.90;;;6.10;;
26014;SDS011;13793;55.388;37.844;2023-03-19T05:50:18;11.63;;;6.00;;
26014;SDS011;13793;55.388;37.844;2023-03-19T05:52:51;7.83;;;5.40;;
26014;SDS011;13793;55.388;37.844;2023-03-19T05:55:22;7.50;;;4.80;;
26014;SDS011;13793;55.388;37.844;2023-03-19T05:57:55;6.83;;;4.70;;
26014;SDS011;13793;55.388;37.844;2023-03-19T06:00:28;7.70;;;4.97;;
26014;SDS011;13793;55.388;37.844;2023-03-19T06:02:59;7.60;;;4.60;;
26014;SDS011;13793;55.388;37.844;2023-03-19T06:05:37;8.03;;;5.00;;
26014;SDS011;13793;55.388;37.844;2023-03-19T06:08:22;13.17;;;7.40;;
26014;SDS011;13793;55.388;37.844;2023-03-19T06:10:54;9.53;;;6.27;;
26014;SDS011;13793;55.388;37.844;2023-03-19T06:13:25;6.83;;;4.60;;
26014;SDS011;13793;55.388;37.844;2023-03-19T06:15:57;8.23;;;4.80;;
26014;SDS011;13793;55.388;37.844;2023-03-19T06:18:30;6.83;;;4.57;;
26014;SDS011;13793;55.388;37.844;2023-03-19T06:21:01;8.13;;;4.70;;
26014;SDS011;13793;55.388;37.844;2023-03-19T06:23:32;6.83;;;4.47;;
26014;SDS011;13793;55.388;37.844;2023-03-19T06:26:04;8.83;;;4.80;;
26014;SDS011;13793;55.388;37.844;2023-03-19T06:28:36;10.83;;;5.20;;
26014;SDS011;13793;55.388;37.844;2023-03-19T06:31:07;8.40;;;4.70;;
26014;SDS011;13793;55.388;37.844;2023-03-19T06:33:55;13.53;;;5.23;;
26014;SDS011;13793;55.388;37.844;2023-03-19T06:36:28;7.57;;;5.30;;
26014;SDS011;13793;55.388;37.844;2023-03-19T06:38:59;7.63;;;5.60;;
26014;SDS011;13793;55.388;37.844;2023-03-19T06:41:30;9.57;;;5.70;;
26014;SDS011;13793;55.388;37.844;2023-03-19T06:44:03;9.23;;;5.20;;
26014;SDS011;13793;55.388;37.844;2023-03-19T06:46:33;9.43;;;5.90;;
26014;SDS011;13793;55.388;37.844;2023-03-19T06:49:04;7.10;;;5.50;;
26014;SDS011;13793;55.388;37.844;2023-03-19T06:51:35;6.60;;;4.93;;
26014;SDS011;13793;55.388;37.844;2023-03-19T06:54:06;7.37;;;5.47;;
26014;SDS011;13793;55.388;37.844;2023-03-19T06:56:37;8.23;;;5.20;;
26014;SDS011;13793;55.388;37.844;2023-03-19T06:59:08;7.07;;;5.50;;
26014;SDS011;13793;55.388;37.844;2023-03-19T07:01:40;6.53;;;5.00;;
26014;SDS011;13793;55.388;37.844;2023-03-19T07:04:10;7.00;;;4.97;;
26014;SDS011;13793;55.388;37.844;2023-03-19T07:06:41;9.07;;;5.60;;
26014;SDS011;13793;55.388;37.844;2023-03-19T07:09:12;6.23;;;5.00;;
26014;SDS011;13793;55.388;37.844;2023-03-19T07:11:42;7.50;;;4.80;;
26014;SDS011;13793;55.388;37.844;2023-03-19T07:14:13;9.00;;;5.63;;
26014;SDS011;13793;55.388;37.844;2023-03-19T07:16:44;8.70;;;4.53;;
26014;SDS011;13793;55.388;37.844;2023-03-19T07:19:14;8.73;;;5.43;;
26014;SDS011;13793;55.388;37.844;2023-03-19T07:21:44;8.60;;;5.60;;
26014;SDS011;13793;55.388;37.844;2023-03-19T07:24:15;7.87;;;4.97;;
26014;SDS011;13793;55.388;37.844;2023-03-19T07:26:46;5.73;;;4.50;;
26014;SDS011;13793;55.388;37.844;2023-03-19T07:29:17;5.80;;;4.60;;
26014;SDS011;13793;55.388;37.844;2023-03-19T07:31:48;7.97;;;4.77;;
26014;SDS011;13793;55.388;37.844;2023-03-19T07:34:18;4.53;;;4.03;;
26014;SDS011;13793;55.388;37.844;2023-03-19T07:36:49;7.97;;;4.70;;
26014;SDS011;13793;55.388;37.844;2023-03-19T07:39:20;6.17;;;3.87;;
26014;SDS011;13793;55.388;37.844;2023-03-19T07:41:51;8.20;;;5.93;;
26014;SDS011;13793;55.388;37.844;2023-03-19T07:44:24;9.00;;;5.90;;
26014;SDS011;13793;55.388;37.844;2023-03-19T07:46:54;8.03;;;5.37;;
26014;SDS011;13793;55.388;37.844;2023-03-19T07:49:25;6.87;;;5.60;;
26014;SDS011;13793;55.388;37.844;2023-03-19T07:51:55;7.53;;;5.70;;
26014;SDS011;13793;55.388;37.844;2023-03-19T07:54:26;8.60;;;5.97;;
26014;SDS011;13793;55.388;37.844;2023-03-19T07:56:58;8.47;;;5.90;;
26014;SDS011;13793;55.388;37.844;2023-03-19T07:59:29;9.93;;;6.13;;
26014;SDS011;13793;55.388;37.844;2023-03-19T08:02:00;9.20;;;6.57;;
26014;SDS011;13793;55.388;37.844;2023-03-19T08:04:30;8.40;;;6.07;;
26014;SDS011;13793;55.388;37.844;2023-03-19T08:07:01;7.97;;;6.07;;
26014;SDS011;13793;55.388;37.844;2023-03-19T08:09:32;7.30;;;5.50;;
26014;SDS011;13793;55.388;37.844;2023-03-19T08:12:03;7.80;;;5.50;;
26014;SDS011;13793;55.388;37.844;2023-03-19T08:14:34;9.30;;;6.07;;
26014;SDS011;13793;55.388;37.844;2023-03-19T08:17:05;9.08;;;5.65;;
26014;SDS011;13793;55.388;37.844;2023-03-19T08:19:36;6.50;;;5.28;;
26014;SDS011;13793;55.388;37.844;2023-03-19T08:22:06;7.17;;;5.58;;
26014;SDS011;13793;55.388;37.844;2023-03-19T08:24:38;6.92;;;5.22;;
26014;SDS011;13793;55.388;37.844;2023-03-19T08:27:08;7.22;;;5.10;;
26014;SDS011;13793;55.388;37.844;2023-03-19T08:29:39;6.67;;;5.58;;
26014;SDS011;13793;55.388;37.844;2023-03-19T08:32:10;6.25;;;5.03;;
26014;SDS011;13793;55.388;37.844;2023-03-19T08:34:41;7.12;;;4.10;;
26014;SDS011;13793;55.388;37.844;2023-03-19T08:37:12;5.05;;;4.28;;
26014;SDS011;13793;55.388;37.844;2023-03-19T08:39:42;5.25;;;4.08;;
26014;SDS011;13793;55.388;37.844;2023-03-19T08:42:13;6.95;;;4.67;;
26014;SDS011;13793;55.388;37.844;2023-03-19T08:44:44;6.90;;;4.40;;
26014;SDS011;13793;55.388;37.844;2023-03-19T08:47:15;5.47;;;4.20;;
26014;SDS011;13793;55.388;37.844;2023-03-19T08:49:45;6.70;;;4.37;;
26014;SDS011;13793;55.388;37.844;2023-03-19T08:52:21;4.87;;;4.17;;
26014;SDS011;13793;55.388;37.844;2023-03-19T08:54:52;6.05;;;5.17;;
26014;SDS011;13793;55.388;37.844;2023-03-19T08:57:23;12.15;;;9.83;;
26014;SDS011;13793;55.388;37.844;2023-03-19T08:59:53;8.60;;;5.90;;
26014;SDS011;13793;55.388;37.844;2023-03-19T09:02:24;4.65;;;3.80;;
26014;SDS011;13793;55.388;37.844;2023-03-19T09:04:55;5.30;;;3.60;;
26014;SDS011;13793;55.388;37.844;2023-03-19T09:07:25;6.58;;;5.25;;
26014;SDS011;13793;55.388;37.844;2023-03-19T09:09:56;9.48;;;6.37;;
26014;SDS011;13793;55.388;37.844;2023-03-19T09:12:27;6.17;;;4.50;;
26014;SDS011;13793;55.388;37.844;2023-03-19T09:14:58;6.22;;;4.58;;
26014;SDS011;13793;55.388;37.844;2023-03-19T09:17:29;6.33;;;4.17;;
26014;SDS011;13793;55.388;37.844;2023-03-19T09:20:00;4.00;;;3.60;;
26014;SDS011;13793;55.388;37.844;2023-03-19T09:22:30;4.37;;;3.85;;
26014;SDS011;13793;55.388;37.844;2023-03-19T09:25:01;4.95;;;3.90;;
26014;SDS011;13793;55.388;37.844;2023-03-19T09:27:31;4.20;;;3.80;;
26014;SDS011;13793;55.388;37.844;2023-03-19T09:30:02;4.55;;;4.12;;
26014;SDS011;13793;55.388;37.844;2023-03-19T09:32:35;7.67;;;5.80;;
26014;SDS011;13793;55.388;37.844;2023-03-19T09:35:06;6.28;;;4.83;;
26014;SDS011;13793;55.388;37.844;2023-03-19T09:37:37;6.08;;;4.42;;
26014;SDS011;13793;55.388;37.844;2023-03-19T09:40:18;5.05;;;4.25;;
26014;SDS011;13793;55.388;37.844;2023-03-19T09:45:50;4.42;;;3.80;;
26014;SDS011;13793;55.388;37.844;2023-03-19T09:48:42;6.17;;;3.83;;
26014;SDS011;13793;55.388;37.844;2023-03-19T09:51:07;3.77;;;3.40;;
26014;SDS011;13793;55.388;37.844;2023-03-19T09:53:45;5.20;;;3.75;;
26014;SDS011;13793;55.388;37.844;2023-03-19T09:56:14;4.35;;;3.80;;
26014;SDS011;13793;55.388;37.844;2023-03-19T09:58:46;4.58;;;4.12;;
26014;SDS011;13793;55.388;37.844;2023-03-19T10:01:22;5.22;;;4.42;;
26014;SDS011;13793;55.388;37.844;2023-03-19T10:06:49;4.95;;;4.22;;
26014;SDS011;13793;55.388;37.844;2023-03-19T10:09:37;5.35;;;4.25;;
26014;SDS011;13793;55.388;37.844;2023-03-19T10:18:15;5.35;;;4.30;;
26014;SDS011;13793;55.388;37.844;2023-03-19T10:20:46;5.53;;;4.50;;
26014;SDS011;13793;55.388;37.844;2023-03-19T10:23:36;5.42;;;4.65;;
26014;SDS011;13793;55.388;37.844;2023-03-19T10:26:16;6.58;;;4.33;;
26014;SDS011;13793;55.388;37.844;2023-03-19T10:28:43;4.45;;;3.98;;
26014;SDS011;13793;55.388;37.844;2023-03-19T10:31:29;5.15;;;4.17;;
26014;SDS011;13793;55.388;37.844;2023-03-19T10:37:14;4.90;;;3.70;;
26014;SDS011;13793;55.388;37.844;2023-03-19T10:39:48;7.25;;;3.55;;
26014;SDS011;13793;55.388;37.844;2023-03-19T10:45:30;3.67;;;2.90;;
26014;SDS011;13793;55.388;37.844;2023-03-19T10:48:06;5.03;;;2.90;;
26014;SDS011;13793;55.388;37.844;2023-03-19T10:50:52;4.58;;;2.87;;
26014;SDS011;13793;55.388;37.844;2023-03-19T10:53:32;3.72;;;3.00;;
26014;SDS011;13793;55.388;37.844;2023-03-19T10:56:09;4.85;;;3.35;;
26014;SDS011;13793;55.388;37.844;2023-03-19T10:58:56;3.72;;;3.22;;
26014;SDS011;13793;55.388;37.844;2023-03-19T11:01:32;5.17;;;3.40;;
26014;SDS011;13793;55.388;37.844;2023-03-19T11:04:27;5.53;;;3.67;;
26014;SDS011;13793;55.388;37.844;2023-03-19T11:06:50;6.78;;;4.15;;
26014;SDS011;13793;55.388;37.844;2023-03-19T11:09:32;9.10;;;4.05;;
26014;SDS011;13793;55.388;37.844;2023-03-19T11:12:16;7.05;;;4.78;;
26014;SDS011;13793;55.388;37.844;2023-03-19T11:14:57;5.67;;;4.17;;
26014;SDS011;13793;55.388;37.844;2023-03-19T11:17:36;5.60;;;5.00;;
26014;SDS011;13793;55.388;37.844;2023-03-19T11:20:27;7.15;;;4.70;;
26014;SDS011;13793;55.388;37.844;2023-03-19T11:23:02;6.42;;;4.75;;
26014;SDS011;13793;55.388;37.844;2023-03-19T11:25:40;6.00;;;4.60;;
26014;SDS011;13793;55.388;37.844;2023-03-19T11:28:15;6.30;;;4.60;;
26014;SDS011;13793;55.388;37.844;2023-03-19T11:33:37;6.27;;;4.60;;
26014;SDS011;13793;55.388;37.844;2023-03-19T11:42:10;9.50;;;4.97;;
26014;SDS011;13793;55.388;37.844;2023-03-19T11:56:07;7.07;;;4.50;;
26014;SDS011;13793;55.388;37.844;2023-03-19T12:10:25;5.80;;;4.43;;
26014;SDS011;13793;55.388;37.844;2023-03-19T12:13:12;6.37;;;4.60;;
26014;SDS011;13793;55.388;37.844;2023-03-19T12:25:20;6.47;;;5.70;;
26014;SDS011;13793;55.388;37.844;2023-03-19T12:27:38;7.20;;;5.37;;
26014;SDS011;13793;55.388;37.844;2023-03-19T12:30:15;7.63;;;4.90;;
26014;SDS011;13793;55.388;37.844;2023-03-19T12:35:48;5.50;;;4.90;;
26014;SDS011;13793;55.388;37.844;2023-03-19T12:38:26;6.50;;;5.10;;
26014;SDS011;13793;55.388;37.844;2023-03-19T12:41:02;8.47;;;5.33;;
26014;SDS011;13793;55.388;37.844;2023-03-19T12:46:15;9.13;;;6.10;;
26014;SDS011;13793;55.388;37.844;2023-03-19T12:48:53;7.33;;;5.40;;
26014;SDS011;13793;55.388;37.844;2023-03-19T12:51:32;7.57;;;5.20;;
26014;SDS011;13793;55.388;37.844;2023-03-19T12:54:43;6.93;;;4.60;;
26014;SDS011;13793;55.388;37.844;2023-03-19T12:59:35;7.43;;;5.20;;
26014;SDS011;13793;55.388;37.844;2023-03-19T13:05:03;6.53;;;5.50;;
26014;SDS011;13793;55.388;37.844;2023-03-19T13:07:33;8.90;;;5.20;;
26014;SDS011;13793;55.388;37.844;2023-03-19T13:10:11;5.73;;;4.80;;
26014;SDS011;13793;55.388;37.844;2023-03-19T13:12:43;7.90;;;5.30;;
26014;SDS011;13793;55.388;37.844;2023-03-19T13:15:18;7.23;;;4.80;;
26014;SDS011;13793;55.388;37.844;2023-03-19T13:17:53;8.07;;;5.00;;
26014;SDS011;13793;55.388;37.844;2023-03-19T13:24:03;7.33;;;5.30;;
26014;SDS011;13793;55.388;37.844;2023-03-19T13:26:37;7.30;;;5.07;;
26014;SDS011;13793;55.388;37.844;2023-03-19T13:29:13;7.87;;;4.60;;
26014;SDS011;13793;55.388;37.844;2023-03-19T13:31:51;10.03;;;5.20;;
26014;SDS011;13793;55.388;37.844;2023-03-19T13:34:27;8.43;;;5.47;;
26014;SDS011;13793;55.388;37.844;2023-03-19T13:37:00;7.27;;;5.00;;
26014;SDS011;13793;55.388;37.844;2023-03-19T13:39:36;7.23;;;5.50;;
26014;SDS011;13793;55.388;37.844;2023-03-19T13:42:34;6.90;;;5.37;;
26014;SDS011;13793;55.388;37.844;2023-03-19T13:48:51;7.47;;;5.20;;
26014;SDS011;13793;55.388;37.844;2023-03-19T13:51:02;7.27;;;5.10;;
26014;SDS011;13793;55.388;37.844;2023-03-19T13:56:55;6.07;;;4.63;;
26014;SDS011;13793;55.388;37.844;2023-03-19T13:59:35;6.07;;;4.80;;
26014;SDS011;13793;55.388;37.844;2023-03-19T14:05:16;5.90;;;4.33;;
26014;SDS011;13793;55.388;37.844;2023-03-19T14:07:50;9.50;;;4.77;;
26014;SDS011;13793;55.388;37.844;2023-03-19T14:10:22;7.03;;;5.50;;
26014;SDS011;13793;55.388;37.844;2023-03-19T14:13:00;7.20;;;4.80;;
26014;SDS011;13793;55.388;37.844;2023-03-19T14:15:39;7.33;;;4.77;;
26014;SDS011;13793;55.388;37.844;2023-03-19T14:18:13;6.97;;;4.57;;
26014;SDS011;13793;55.388;37.844;2023-03-19T14:20:56;8.00;;;5.07;;
26014;SDS011;13793;55.388;37.844;2023-03-19T14:23:32;8.40;;;4.57;;
26014;SDS011;13793;55.388;37.844;2023-03-19T14:26:05;6.90;;;4.23;;
26014;SDS011;13793;55.388;37.844;2023-03-19T14:31:34;7.27;;;4.40;;
26014;SDS011;13793;55.388;37.844;2023-03-19T14:39:29;6.70;;;4.43;;
26014;SDS011;13793;55.388;37.844;2023-03-19T14:42:12;6.77;;;4.13;;
26014;SDS011;13793;55.388;37.844;2023-03-19T14:50:31;7.47;;;4.07;;
26014;SDS011;13793;55.388;37.844;2023-03-19T14:55:53;7.43;;;4.37;;
26014;SDS011;13793;55.388;37.844;2023-03-19T14:58:23;8.50;;;4.00;;
26014;SDS011;13793;55.388;37.844;2023-03-19T15:00:54;5.53;;;4.60;;
26014;SDS011;13793;55.388;37.844;2023-03-19T15:03:32;4.97;;;3.83;;
26014;SDS011;13793;55.388;37.844;2023-03-19T15:06:05;6.77;;;4.00;;
26014;SDS011;13793;55.388;37.844;2023-03-19T15:08:38;6.33;;;4.03;;
26014;SDS011;13793;55.388;37.844;2023-03-19T15:19:27;7.07;;;4.17;;
26014;SDS011;13793;55.388;37.844;2023-03-19T15:22:10;5.97;;;4.30;;
26014;SDS011;13793;55.388;37.844;2023-03-19T15:24:42;4.93;;;3.90;;
26014;SDS011;13793;55.388;37.844;2023-03-19T15:27:16;8.40;;;3.87;;
26014;SDS011;13793;55.388;37.844;2023-03-19T15:29:54;7.63;;;3.87;;
26014;SDS011;13793;55.388;37.844;2023-03-19T15:32:34;7.67;;;3.83;;
26014;SDS011;13793;55.388;37.844;2023-03-19T15:35:10;6.43;;;3.80;;
26014;SDS011;13793;55.388;37.844;2023-03-19T15:37:42;5.63;;;4.00;;
26014;SDS011;13793;55.388;37.844;2023-03-19T15:40:15;6.73;;;4.17;;
26014;SDS011;13793;55.388;37.844;2023-03-19T15:42:47;6.10;;;4.00;;
26014;SDS011;13793;55.388;37.844;2023-03-19T15:45:20;7.67;;;4.33;;
26014;SDS011;13793;55.388;37.844;2023-03-19T15:50:26;7.50;;;5.33;;
26014;SDS011;13793;55.388;37.844;2023-03-19T15:53:09;8.43;;;5.10;;
26014;SDS011;13793;55.388;37.844;2023-03-19T15:55:45;10.70;;;5.00;;
26014;SDS011;13793;55.388;37.844;2023-03-19T15:58:26;7.20;;;4.73;;
26014;SDS011;13793;55.388;37.844;2023-03-19T16:00:52;9.13;;;4.70;;
26014;SDS011;13793;55.388;37.844;2023-03-19T16:03:25;7.60;;;5.10;;
26014;SDS011;13793;55.388;37.844;2023-03-19T16:06:01;9.43;;;4.17;;
26014;SDS011;13793;55.388;37.844;2023-03-19T16:08:34;10.23;;;5.47;;
26014;SDS011;13793;55.388;37.844;2023-03-19T16:11:11;6.70;;;4.63;;
26014;SDS011;13793;55.388;37.844;2023-03-19T16:17:00;11.73;;;5.23;;
26014;SDS011;13793;55.388;37.844;2023-03-19T16:19:34;8.30;;;5.00;;
26014;SDS011;13793;55.388;37.844;2023-03-19T16:22:16;8.27;;;4.97;;
26014;SDS011;13793;55.388;37.844;2023-03-19T16:24:55;8.70;;;5.17;;
26014;SDS011;13793;55.388;37.844;2023-03-19T16:27:36;6.87;;;4.93;;
26014;SDS011;13793;55.388;37.844;2023-03-19T16:30:27;8.50;;;4.57;;
26014;SDS011;13793;55.388;37.844;2023-03-19T16:33:02;7.90;;;5.63;;
26014;SDS011;13793;55.388;37.844;2023-03-19T16:35:33;9.13;;;5.30;;
26014;SDS011;13793;55.388;37.844;2023-03-19T16:40:46;11.77;;;6.47;;
26014;SDS011;13793;55.388;37.844;2023-03-19T16:43:19;10.50;;;6.17;;
26014;SDS011;13793;55.388;37.844;2023-03-19T16:46:03;9.43;;;6.30;;
26014;SDS011;13793;55.388;37.844;2023-03-19T16:48:36;10.47;;;6.60;;
26014;SDS011;13793;55.388;37.844;2023-03-19T16:51:16;10.93;;;7.07;;
26014;SDS011;13793;55.388;37.844;2023-03-19T16:53:42;12.87;;;7.10;;
26014;SDS011;13793;55.388;37.844;2023-03-19T16:56:14;14.13;;;7.20;;
26014;SDS011;13793;55.388;37.844;2023-03-19T16:58:46;10.60;;;6.87;;
26014;SDS011;13793;55.388;37.844;2023-03-19T17:01:18;17.67;;;8.80;;
26014;SDS011;13793;55.388;37.844;2023-03-19T17:03:52;20.47;;;10.63;;
26014;SDS011;13793;55.388;37.844;2023-03-19T17:06:23;28.20;;;14.13;;
26014;SDS011;13793;55.388;37.844;2023-03-19T17:08:56;67.20;;;28.23;;